createdAt,value
2016-05-29T00:00:12.807Z,16.52
2016-05-29T00:01:27.013Z,16.52
2016-05-29T00:02:27.032Z,16.58
2016-05-29T00:03:12.878Z,16.61
2016-05-29T00:04:12.912Z,16.53
2016-05-29T00:05:12.931Z,16.58
2016-05-29T00:06:27.137Z,16.57
2016-05-29T00:07:12.982Z,16.57
2016-05-29T00:08:13.001Z,16.56
2016-05-29T00:09:12.879Z,16.49
2016-05-29T00:10:13.069Z,16.53
2016-05-29T00:11:12.915Z,16.45
2016-05-29T00:12:13.120Z,16.49
2016-05-29T00:13:13.124Z,16.5
2016-05-29T00:14:12.986Z,16.5
2016-05-29T00:15:13.175Z,16.5
2016-05-29T00:16:27.381Z,16.49
2016-05-29T00:17:13.072Z,16.49
2016-05-29T00:18:13.231Z,16.57
2016-05-29T00:19:13.297Z,16.45
2016-05-29T00:20:13.377Z,16.45
2016-05-29T00:21:14.005Z,16.38
2016-05-29T00:22:13.336Z,16.42
2016-05-29T00:23:13.369Z,16.46
2016-05-29T00:24:13.388Z,16.43
2016-05-29T00:25:13.422Z,16.34
2016-05-29T00:26:13.440Z,16.39
2016-05-29T00:27:13.302Z,16.34
2016-05-29T00:28:13.320Z,16.3
2016-05-29T00:29:13.354Z,16.43
2016-05-29T00:30:13.544Z,16.48
2016-05-29T00:31:27.751Z,16.27
2016-05-29T00:32:27.768Z,16.3
2016-05-29T00:33:27.787Z,16.27
2016-05-29T00:34:13.634Z,16.28
2016-05-29T00:35:13.496Z,16.3
2016-05-29T00:36:14.435Z,16.28
2016-05-29T00:37:13.704Z,16.31
2016-05-29T00:38:27.909Z,16.27
2016-05-29T00:39:13.740Z,16.27
2016-05-29T00:40:13.775Z,16.21
2016-05-29T00:41:13.809Z,16.23
2016-05-29T00:42:13.826Z,16.27
2016-05-29T00:43:13.845Z,16.27
2016-05-29T00:44:13.864Z,16.15
2016-05-29T00:46:13.916Z,16.23
2016-05-29T00:47:13.794Z,16.14
2016-05-29T00:48:28.155Z,16.2
2016-05-29T00:49:13.986Z,16.11
2016-05-29T00:50:14.255Z,16.14
2016-05-29T00:51:14.054Z,16.15
2016-05-29T00:52:14.058Z,16.12
2016-05-29T00:53:14.091Z,16.11
2016-05-29T00:54:28.141Z,16.08
2016-05-29T00:55:14.143Z,16.08
2016-05-29T00:56:14.161Z,16.01
2016-05-29T00:57:14.179Z,16.07
2016-05-29T00:58:14.214Z,16.07
2016-05-29T00:59:14.232Z,16.04
2016-05-29T01:00:14.265Z,16.09
2016-05-29T01:01:14.285Z,16.12
2016-05-29T01:02:14.302Z,16.11
2016-05-29T01:03:28.508Z,16.12
2016-05-29T01:04:14.198Z,16.11
2016-05-29T01:05:14.826Z,16.07
2016-05-29T01:06:14.423Z,16.07
2016-05-29T01:07:14.426Z,16.08
2016-05-29T01:09:14.478Z,16.05
2016-05-29T01:10:28.683Z,16.07
2016-05-29T01:11:14.514Z,16.08
2016-05-29T01:12:14.548Z,16.05
2016-05-29T01:13:14.566Z,16.02
2016-05-29T01:14:14.584Z,16
2016-05-29T01:15:14.619Z,15.96
2016-05-29T01:17:14.514Z,16.05
2016-05-29T01:18:14.689Z,16.09
2016-05-29T01:19:14.551Z,16.05
2016-05-29T01:20:28.928Z,15.96
2016-05-29T01:21:14.760Z,15.97
2016-05-29T01:22:14.622Z,16
2016-05-29T01:23:14.811Z,15.96
2016-05-29T01:24:14.830Z,16.01
2016-05-29T01:25:14.708Z,16
2016-05-29T01:26:29.055Z,15.96
2016-05-29T01:27:14.901Z,16.01
2016-05-29T01:28:14.950Z,16.01
2016-05-29T01:30:14.972Z,16.01
2016-05-29T01:31:15.005Z,15.93
2016-05-29T01:33:15.058Z,16.01
2016-05-29T01:34:15.060Z,15.92
2016-05-29T01:35:15.110Z,15.87
2016-05-29T01:36:15.160Z,15.92
2016-05-29T01:37:15.146Z,15.84
2016-05-29T01:38:29.352Z,15.82
2016-05-29T01:39:15.199Z,15.84
2016-05-29T01:40:15.201Z,15.89
2016-05-29T01:41:29.423Z,15.84
2016-05-29T01:42:15.270Z,15.87
2016-05-29T01:43:15.287Z,15.84
2016-05-29T01:44:15.306Z,15.84
2016-05-29T01:45:15.340Z,15.92
2016-05-29T01:48:15.254Z,16.01
2016-05-29T01:49:15.428Z,16.02
2016-05-29T01:50:15.478Z,15.94
2016-05-29T01:51:15.872Z,15.93
2016-05-29T01:52:15.514Z,15.93
2016-05-29T01:53:15.533Z,15.96
2016-05-29T01:54:15.552Z,16.01
2016-05-29T01:55:15.585Z,16
2016-05-29T01:56:15.604Z,15.94
2016-05-29T01:57:15.466Z,15.97
2016-05-29T01:58:15.655Z,16.08
2016-05-29T01:59:15.675Z,16.05
2016-05-29T02:00:15.708Z,16.01
2016-05-29T02:01:15.727Z,16
2016-05-29T02:02:29.932Z,16.08
2016-05-29T02:03:15.763Z,16.04
2016-05-29T02:04:15.782Z,16.12
2016-05-29T02:05:15.816Z,15.97
2016-05-29T02:06:15.850Z,16.07
2016-05-29T02:08:15.887Z,16.11
2016-05-29T02:09:15.765Z,16.04
2016-05-29T02:11:15.956Z,16.14
2016-05-29T02:12:15.976Z,16.05
2016-05-29T02:13:30.196Z,16.05
2016-05-29T02:14:16.028Z,16.09
2016-05-29T02:15:30.248Z,16.09
2016-05-29T02:16:16.064Z,16.07
2016-05-29T02:17:16.098Z,16
2016-05-29T02:18:15.960Z,15.93
2016-05-29T02:19:30.337Z,15.93
2016-05-29T02:20:17.028Z,15.97
2016-05-29T02:21:16.389Z,15.93
2016-05-29T02:22:16.220Z,16.02
2016-05-29T02:23:30.427Z,15.97
2016-05-29T02:24:30.444Z,16.02
2016-05-29T02:25:30.478Z,15.96
2016-05-29T02:26:16.310Z,16.01
2016-05-29T02:27:16.359Z,15.93
2016-05-29T02:28:16.361Z,15.93
2016-05-29T02:29:30.568Z,15.83
2016-05-29T02:30:16.399Z,15.86
2016-05-29T02:31:16.448Z,15.84
2016-05-29T02:33:16.329Z,15.89
2016-05-29T02:34:16.503Z,15.84
2016-05-29T02:35:17.177Z,15.89
2016-05-29T02:36:16.399Z,15.9
2016-05-29T02:37:16.573Z,15.96
2016-05-29T02:38:16.592Z,15.94
2016-05-29T02:39:30.798Z,15.82
2016-05-29T02:40:16.643Z,15.87
2016-05-29T02:41:30.851Z,15.96
2016-05-29T02:42:16.681Z,15.93
2016-05-29T02:45:30.939Z,15.84
2016-05-29T02:46:16.785Z,16
2016-05-29T02:47:16.819Z,15.92
2016-05-29T02:48:16.854Z,15.84
2016-05-29T02:49:16.872Z,15.89
2016-05-29T02:50:16.734Z,15.87
2016-05-29T02:51:16.923Z,15.94
2016-05-29T02:52:16.941Z,15.9
2016-05-29T02:53:16.961Z,15.84
2016-05-29T02:54:16.822Z,15.92
2016-05-29T02:55:16.997Z,15.89
2016-05-29T02:56:16.874Z,15.87
2016-05-29T02:57:16.894Z,15.94
2016-05-29T02:58:17.083Z,15.97
2016-05-29T03:00:16.964Z,15.87
2016-05-29T03:01:31.169Z,15.96
2016-05-29T03:02:17.157Z,15.94
2016-05-29T03:03:17.190Z,15.93
2016-05-29T03:04:17.208Z,15.94
2016-05-29T03:05:16.930Z,15.94
2016-05-29T03:06:17.151Z,15.94
2016-05-29T03:07:17.295Z,15.97
2016-05-29T03:08:17.329Z,16
2016-05-29T03:09:17.332Z,15.93
2016-05-29T03:11:31.556Z,15.93
2016-05-29T03:12:17.262Z,16
2016-05-29T03:13:17.436Z,15.96
2016-05-29T03:14:17.454Z,15.96
2016-05-29T03:15:17.317Z,16.07
2016-05-29T03:16:31.679Z,15.92
2016-05-29T03:17:17.525Z,16.04
2016-05-29T03:18:17.542Z,16
2016-05-29T03:19:17.577Z,15.94
2016-05-29T03:20:31.955Z,16.02
2016-05-29T03:21:17.317Z,15.93
2016-05-29T03:22:17.631Z,15.97
2016-05-29T03:23:17.667Z,16
2016-05-29T03:24:17.528Z,15.96
2016-05-29T03:25:17.733Z,15.93
2016-05-29T03:26:17.581Z,16
2016-05-29T03:27:31.942Z,15.94
2016-05-29T03:28:17.789Z,16.01
2016-05-29T03:29:17.807Z,16.04
2016-05-29T03:30:17.841Z,15.93
2016-05-29T03:31:17.860Z,15.92
2016-05-29T03:32:17.721Z,15.89
2016-05-29T03:33:17.896Z,15.87
2016-05-29T03:34:17.930Z,15.94
2016-05-29T03:35:19.088Z,15.83
2016-05-29T03:37:18.001Z,15.89
2016-05-29T03:39:18.052Z,15.82
2016-05-29T03:40:18.071Z,15.92
2016-05-29T03:41:17.933Z,15.92
2016-05-29T03:42:18.123Z,16.04
2016-05-29T03:43:18.142Z,16.02
2016-05-29T03:44:18.160Z,15.87
2016-05-29T03:45:18.193Z,16.01
2016-05-29T03:46:18.056Z,15.8
2016-05-29T03:47:18.231Z,15.9
2016-05-29T03:48:32.436Z,15.83
2016-05-29T03:49:18.283Z,15.86
2016-05-29T03:50:19.114Z,15.82
2016-05-29T03:51:18.351Z,15.82
2016-05-29T03:52:18.353Z,15.84
2016-05-29T03:53:18.387Z,15.84
2016-05-29T03:54:18.250Z,16
2016-05-29T03:55:18.424Z,16.04
2016-05-29T03:56:18.458Z,15.93
2016-05-29T03:57:18.476Z,15.86
2016-05-29T03:58:18.494Z,15.94
2016-05-29T03:59:18.528Z,16.02
2016-05-29T04:00:18.546Z,15.97
2016-05-29T04:01:18.581Z,16.11
2016-05-29T04:02:18.599Z,16.21
2016-05-29T04:03:18.616Z,16.25
2016-05-29T04:04:32.824Z,16.17
2016-05-29T04:05:32.858Z,16.24
2016-05-29T04:06:18.704Z,16.3
2016-05-29T04:08:18.741Z,16.31
2016-05-29T04:09:18.758Z,16.39
2016-05-29T04:10:18.792Z,16.66
2016-05-29T04:11:18.810Z,17.04
2016-05-29T04:12:18.829Z,17.3
2016-05-29T04:13:18.707Z,17.78
2016-05-29T04:14:18.881Z,17.96
2016-05-29T04:15:18.743Z,18.1
2016-05-29T04:17:18.951Z,17.86
2016-05-29T04:18:18.986Z,17.64
2016-05-29T04:19:18.848Z,17.59
2016-05-29T04:20:33.054Z,17.49
2016-05-29T04:21:19.056Z,17.48
2016-05-29T04:22:19.075Z,17.41
2016-05-29T04:23:19.109Z,17.31
2016-05-29T04:24:19.127Z,17.37
2016-05-29T04:25:18.989Z,17.4
2016-05-29T04:26:19.194Z,17.44
2016-05-29T04:28:19.216Z,17.86
2016-05-29T04:29:19.093Z,17.9
2016-05-29T04:30:19.283Z,17.93
2016-05-29T04:31:19.146Z,18.05
2016-05-29T04:32:19.336Z,18.45
2016-05-29T04:33:19.197Z,18.62
2016-05-29T04:34:33.561Z,19.06
2016-05-29T04:35:19.485Z,19.54
2016-05-29T04:36:33.613Z,20.23
2016-05-29T04:37:19.302Z,20.5
2016-05-29T04:38:19.476Z,20.62
2016-05-29T04:39:19.511Z,20.97
2016-05-29T04:40:19.545Z,21.35
2016-05-29T04:41:19.563Z,21.43
2016-05-29T04:42:19.581Z,21.49
2016-05-29T04:43:19.616Z,21.84
2016-05-29T04:44:19.634Z,22.25
2016-05-29T04:47:33.907Z,22.55
2016-05-29T04:48:19.754Z,22.73
2016-05-29T04:49:19.773Z,23.2
2016-05-29T04:50:19.806Z,23.33
2016-05-29T04:51:34.012Z,23.22
2016-05-29T04:52:19.858Z,23.5
2016-05-29T04:53:19.751Z,23.39
2016-05-29T04:54:19.926Z,23.22
2016-05-29T04:55:19.789Z,22.98
2016-05-29T04:56:19.978Z,23.12
2016-05-29T04:57:19.997Z,23.22
2016-05-29T04:58:19.875Z,22.86
2016-05-29T04:59:20.064Z,22.7
2016-05-29T05:00:20.083Z,23.15
2016-05-29T05:01:20.133Z,23.33
2016-05-29T05:02:20.151Z,22.97
2016-05-29T05:03:20.169Z,23.15
2016-05-29T05:04:20.203Z,22.91
2016-05-29T05:05:34.268Z,22.72
2016-05-29T05:06:20.271Z,22.94
2016-05-29T05:07:20.305Z,22.88
2016-05-29T05:08:20.323Z,22.79
2016-05-29T05:09:20.358Z,22.94
2016-05-29T05:10:20.391Z,22.86
2016-05-29T05:11:20.254Z,22.95
2016-05-29T05:12:20.443Z,22.79
2016-05-29T05:13:34.509Z,22.98
2016-05-29T05:14:20.340Z,22.95
2016-05-29T05:15:20.529Z,22.7
2016-05-29T05:16:20.564Z,22.27
2016-05-29T05:17:20.441Z,22.3
2016-05-29T05:18:20.632Z,22.46
2016-05-29T05:19:20.665Z,23.13
2016-05-29T05:20:20.698Z,23.61
2016-05-29T05:21:20.952Z,23.8
2016-05-29T05:22:20.751Z,23.32
2016-05-29T05:24:20.819Z,23.01
2016-05-29T05:25:20.838Z,23.28
2016-05-29T05:27:20.889Z,24.15
2016-05-29T05:28:20.940Z,24.49
2016-05-29T05:29:20.817Z,25.08
2016-05-29T05:30:20.992Z,25.05
2016-05-29T05:32:35.247Z,25.99
2016-05-29T05:34:21.127Z,25.46
2016-05-29T05:35:21.083Z,25.18
2016-05-29T05:36:35.227Z,25.28
2016-05-29T05:37:21.230Z,25.8
2016-05-29T05:38:21.263Z,26.21
2016-05-29T05:39:35.469Z,26.75
2016-05-29T05:40:21.316Z,27.14
2016-05-29T05:41:21.349Z,26.82
2016-05-29T05:42:21.227Z,25.77
2016-05-29T05:43:21.417Z,26.17
2016-05-29T05:44:21.451Z,26.82
2016-05-29T05:45:21.329Z,26.94
2016-05-29T05:46:21.535Z,26.32
2016-05-29T05:47:21.553Z,26.02
2016-05-29T05:48:21.431Z,25.9
2016-05-29T05:49:35.793Z,26.18
2016-05-29T05:51:21.721Z,26.69
2016-05-29T05:52:21.707Z,27.17
2016-05-29T05:53:21.741Z,27.24
2016-05-29T05:54:21.776Z,27.6
2016-05-29T05:55:35.981Z,27.7
2016-05-29T05:56:21.842Z,27.88
2016-05-29T05:57:21.877Z,27.82
2016-05-29T05:58:21.911Z,27.78
2016-05-29T05:59:21.945Z,27.82
2016-05-29T06:00:21.822Z,27.54
2016-05-29T06:01:21.997Z,27.74
2016-05-29T06:02:22.046Z,27.44
2016-05-29T06:03:22.065Z,27.49
2016-05-29T06:05:22.149Z,28.54
2016-05-29T06:06:22.026Z,28.89
2016-05-29T06:07:22.201Z,28.86
2016-05-29T06:08:22.250Z,28.44
2016-05-29T06:09:22.268Z,29.23
2016-05-29T06:10:22.302Z,29.18
2016-05-29T06:11:36.524Z,29.36
2016-05-29T06:12:22.386Z,29.55
2016-05-29T06:13:22.404Z,29.86
2016-05-29T06:14:22.454Z,29.61
2016-05-29T06:15:22.472Z,29.6
2016-05-29T06:16:22.349Z,30.08
2016-05-29T06:17:22.556Z,30.79
2016-05-29T06:18:22.434Z,30.49
2016-05-29T06:19:22.608Z,30.26
2016-05-29T06:20:23.360Z,30.19
2016-05-29T06:21:23.238Z,30.02
2016-05-29T06:22:22.725Z,29.46
2016-05-29T06:23:22.759Z,29.67
2016-05-29T06:24:22.793Z,30.05
2016-05-29T06:25:22.827Z,29.83
2016-05-29T06:27:22.739Z,31.2
2016-05-29T06:28:22.945Z,30.84
2016-05-29T06:30:22.856Z,30.01
2016-05-29T06:31:23.047Z,30
2016-05-29T06:32:23.081Z,30.38
2016-05-29T06:33:23.114Z,30.77
2016-05-29T06:34:23.163Z,31.1
2016-05-29T06:35:23.605Z,30.92
2016-05-29T06:36:23.060Z,31.14
2016-05-29T06:37:23.110Z,30.82
2016-05-29T06:38:37.471Z,30.57
2016-05-29T06:39:23.334Z,30.47
2016-05-29T06:40:23.368Z,30.77
2016-05-29T06:41:23.245Z,30.69
2016-05-29T06:42:23.280Z,30.84
2016-05-29T06:43:23.469Z,31.32
2016-05-29T06:44:23.346Z,31.62
2016-05-29T06:45:23.537Z,31.75
2016-05-29T06:46:23.588Z,31.76
2016-05-29T06:47:23.637Z,31.85
2016-05-29T06:48:23.670Z,31.99
2016-05-29T06:49:23.688Z,32.19
2016-05-29T06:50:24.362Z,32.51
2016-05-29T06:52:23.806Z,32.57
2016-05-29T06:53:23.840Z,32.78
2016-05-29T06:54:38.062Z,31.7
2016-05-29T06:55:23.924Z,31.84
2016-05-29T06:56:23.942Z,31.5
2016-05-29T06:57:23.991Z,31.69
2016-05-29T06:58:38.057Z,31.76
2016-05-29T06:59:24.075Z,32.03
2016-05-29T07:00:24.093Z,32.3
2016-05-29T07:01:24.142Z,32.74
2016-05-29T07:02:24.161Z,32.41
2016-05-29T07:03:24.211Z,32.18
2016-05-29T07:04:24.244Z,32.14
2016-05-29T07:05:24.263Z,31.92
2016-05-29T07:06:24.828Z,32.35
2016-05-29T07:07:38.550Z,32.41
2016-05-29T07:08:38.583Z,32.3
2016-05-29T07:09:24.430Z,32.59
2016-05-29T07:10:24.308Z,32.33
2016-05-29T07:11:24.341Z,31.92
2016-05-29T07:12:24.547Z,32.45
2016-05-29T07:13:24.425Z,32
2016-05-29T07:14:38.802Z,31.93
2016-05-29T07:15:24.649Z,32.35
2016-05-29T07:16:24.527Z,32.82
2016-05-29T07:17:24.560Z,33.12
2016-05-29T07:19:24.785Z,33.63
2016-05-29T07:20:25.538Z,33.04
2016-05-29T07:21:24.728Z,33.28
2016-05-29T07:23:39.139Z,33.04
2016-05-29T07:24:24.986Z,32.67
2016-05-29T07:25:24.864Z,32.07
2016-05-29T07:26:25.070Z,32.06
2016-05-29T07:27:25.087Z,32.13
2016-05-29T07:29:25.171Z,32.72
2016-05-29T07:30:39.377Z,32.59
2016-05-29T07:31:25.239Z,32.69
2016-05-29T07:32:25.273Z,32.72
2016-05-29T07:33:25.306Z,32.18
2016-05-29T07:34:25.342Z,32.32
2016-05-29T07:35:25.375Z,32.7
2016-05-29T07:36:26.034Z,32.51
2016-05-29T07:37:39.661Z,32.32
2016-05-29T07:38:25.491Z,32.48
2016-05-29T07:39:25.527Z,32.63
2016-05-29T07:40:25.435Z,33
2016-05-29T07:41:25.610Z,32.85
2016-05-29T07:42:25.643Z,33.29
2016-05-29T07:43:25.663Z,32.85
2016-05-29T07:44:25.711Z,31.88
2016-05-29T07:45:25.604Z,31.66
2016-05-29T07:46:39.967Z,32.3
2016-05-29T07:47:25.813Z,32.33
2016-05-29T07:48:25.863Z,31.89
2016-05-29T07:49:25.896Z,32.32
2016-05-29T07:50:25.852Z,32.41
2016-05-29T07:51:26.355Z,32.35
2016-05-29T07:52:25.998Z,32.7
2016-05-29T07:53:25.907Z,32.96
2016-05-29T07:55:26.101Z,31.96
2016-05-29T07:56:26.150Z,32.22
2016-05-29T07:57:26.028Z,31.92
2016-05-29T07:58:26.218Z,31.85
2016-05-29T07:59:26.251Z,32.13
2016-05-29T08:00:26.286Z,32.15
2016-05-29T08:01:40.367Z,32.37
2016-05-29T08:02:26.370Z,32.26
2016-05-29T08:03:26.403Z,32.25
2016-05-29T08:04:26.436Z,32.57
2016-05-29T08:05:26.986Z,33
2016-05-29T08:08:26.432Z,33.39
2016-05-29T08:09:26.622Z,33.75
2016-05-29T08:11:26.691Z,33.91
2016-05-29T08:12:26.724Z,34.03
2016-05-29T08:13:26.758Z,33.86
2016-05-29T08:14:26.791Z,33.32
2016-05-29T08:15:26.827Z,32.47
2016-05-29T08:16:26.860Z,32.81
2016-05-29T08:17:26.909Z,32.79
2016-05-29T08:18:26.944Z,33.23
2016-05-29T08:19:26.993Z,33.45
2016-05-29T08:20:27.168Z,33.09
2016-05-29T08:21:27.092Z,32.85
2016-05-29T08:22:27.096Z,33.12
2016-05-29T08:23:27.113Z,33.45
2016-05-29T08:25:27.196Z,34.05
2016-05-29T08:26:27.231Z,34.03
2016-05-29T08:27:27.287Z,34.22
2016-05-29T08:28:27.187Z,34.34
2016-05-29T08:29:27.415Z,34.25
2016-05-29T08:30:27.298Z,34.02
2016-05-29T08:31:27.371Z,34.06
2016-05-29T08:32:27.569Z,33.97
2016-05-29T08:33:41.799Z,34.06
2016-05-29T08:34:27.653Z,34.12
2016-05-29T08:35:28.414Z,33.51
2016-05-29T08:36:27.738Z,33.32
2016-05-29T08:37:27.774Z,33.37
2016-05-29T08:38:27.827Z,33
2016-05-29T08:39:27.864Z,32.65
2016-05-29T08:40:27.901Z,32.88
2016-05-29T08:41:27.938Z,32.89
2016-05-29T08:43:42.195Z,32.57
2016-05-29T08:44:28.042Z,32.75
2016-05-29T08:45:28.092Z,33.06
2016-05-29T08:46:27.814Z,33.31
2016-05-29T08:47:28.161Z,33.61
2016-05-29T08:48:28.196Z,33.91
2016-05-29T08:49:42.418Z,33.6
2016-05-29T08:50:28.671Z,33.54
2016-05-29T08:51:28.158Z,33.32
2016-05-29T08:52:28.349Z,32.87
2016-05-29T08:53:28.383Z,32.78
2016-05-29T08:54:28.402Z,33.07
2016-05-29T08:55:28.452Z,33.19
2016-05-29T08:56:28.486Z,33.65
2016-05-29T08:57:28.379Z,33.76
2016-05-29T08:58:28.757Z,34.28
2016-05-29T08:59:28.587Z,34.09
2016-05-29T09:00:42.809Z,33.6
2016-05-29T09:01:28.656Z,33.42
2016-05-29T09:02:28.534Z,33.06
2016-05-29T09:03:28.567Z,33.38
2016-05-29T09:04:28.773Z,33.53
2016-05-29T09:05:43.166Z,33.72
2016-05-29T09:06:29.216Z,33.68
2016-05-29T09:07:31.219Z,33.91
2016-05-29T09:08:28.909Z,33.35
2016-05-29T09:09:28.943Z,32.79
2016-05-29T09:10:28.977Z,31.99
2016-05-29T09:11:29.026Z,30.7
2016-05-29T09:12:29.045Z,30.55
2016-05-29T09:13:30.782Z,30.98
2016-05-29T09:14:29.113Z,31.43
2016-05-29T09:15:43.365Z,31.85
2016-05-29T09:16:29.196Z,31.73
2016-05-29T09:17:32.543Z,32.47
2016-05-29T09:18:29.107Z,32.75
2016-05-29T09:19:29.313Z,33.26
2016-05-29T09:20:29.176Z,33.95
2016-05-29T09:21:43.554Z,34.5
2016-05-29T09:22:29.399Z,34.44
2016-05-29T09:23:29.277Z,34.89
2016-05-29T09:24:29.468Z,34.02
2016-05-29T09:25:29.501Z,33.69
2016-05-29T09:26:29.379Z,33.11
2016-05-29T09:27:45.820Z,33.01
2016-05-29T09:28:29.619Z,32.82
2016-05-29T09:29:29.653Z,32.45
2016-05-29T09:31:29.720Z,33
2016-05-29T09:32:29.755Z,33.12
2016-05-29T09:33:29.789Z,33.12
2016-05-29T09:34:29.823Z,33.29
2016-05-29T09:35:30.606Z,32.96
2016-05-29T09:36:44.547Z,32.92
2016-05-29T09:37:31.815Z,33.12
2016-05-29T09:38:29.958Z,33.31
2016-05-29T09:39:29.992Z,33.56
2016-05-29T09:41:30.060Z,33.75
2016-05-29T09:42:31.719Z,33.84
2016-05-29T09:43:30.128Z,34.06
2016-05-29T09:44:30.177Z,34.42
2016-05-29T09:45:30.196Z,33.73
2016-05-29T09:46:30.246Z,33.45
2016-05-29T09:47:30.280Z,33.56
2016-05-29T09:48:30.251Z,33.68
2016-05-29T09:49:30.347Z,33.56
2016-05-29T09:50:30.522Z,33.56
2016-05-29T09:51:30.665Z,33.66
2016-05-29T09:52:33.559Z,34.05
2016-05-29T09:53:30.482Z,34.09
2016-05-29T09:54:30.518Z,34.05
2016-05-29T09:56:30.585Z,33.78
2016-05-29T09:57:30.462Z,33.63
2016-05-29T09:58:30.653Z,33.73
2016-05-29T09:59:33.796Z,33.71
2016-05-29T10:00:30.720Z,34.1
2016-05-29T10:01:30.443Z,34.27
2016-05-29T10:02:30.789Z,34.34
2016-05-29T10:03:30.823Z,33.78
2016-05-29T10:04:34.153Z,33.94
2016-05-29T10:05:30.749Z,33.78
2016-05-29T10:06:31.643Z,33.84
2016-05-29T10:07:30.802Z,33.91
2016-05-29T10:08:45.180Z,33.42
2016-05-29T10:09:31.041Z,33.01
2016-05-29T10:10:31.076Z,32.65
2016-05-29T10:11:30.953Z,31.95
2016-05-29T10:12:31.144Z,31.58
2016-05-29T10:13:31.161Z,31.46
2016-05-29T10:14:31.946Z,31.5
2016-05-29T10:15:31.246Z,31.34
2016-05-29T10:16:31.107Z,31.48
2016-05-29T10:17:45.485Z,31.57
2016-05-29T10:18:45.518Z,31.65
2016-05-29T10:19:31.210Z,31.38
2016-05-29T10:20:31.259Z,31.29
2016-05-29T10:21:45.746Z,31.06
2016-05-29T10:22:31.467Z,31.06
2016-05-29T10:23:31.502Z,30.95
2016-05-29T10:25:31.568Z,30.62
2016-05-29T10:26:45.791Z,30.61
2016-05-29T10:27:31.637Z,30.42
2016-05-29T10:28:31.671Z,30.45
2016-05-29T10:29:31.704Z,30.42
2016-05-29T10:30:31.739Z,30.46
2016-05-29T10:31:31.757Z,30.42
2016-05-29T10:32:31.791Z,30.72
2016-05-29T10:33:31.825Z,31.06
2016-05-29T10:34:31.859Z,31.14
2016-05-29T10:35:31.909Z,30.99
2016-05-29T10:36:31.942Z,31.04
2016-05-29T10:37:31.961Z,31.06
2016-05-29T10:38:31.994Z,31.28
2016-05-29T10:39:32.028Z,31.35
2016-05-29T10:40:46.250Z,31.35
2016-05-29T10:41:32.097Z,31.28
2016-05-29T10:42:32.130Z,31.06
2016-05-29T10:43:32.149Z,31.02
2016-05-29T10:44:32.042Z,30.95
2016-05-29T10:45:32.060Z,30.39
2016-05-29T10:46:32.266Z,30.49
2016-05-29T10:47:32.285Z,30.62
2016-05-29T10:48:32.335Z,30.65
2016-05-29T10:49:32.352Z,30.7
2016-05-29T10:50:32.386Z,30.55
2016-05-29T10:51:33.421Z,30.39
2016-05-29T10:52:32.282Z,30.72
2016-05-29T10:53:32.488Z,30.97
2016-05-29T10:54:32.522Z,31.28
2016-05-29T10:55:32.556Z,31.48
2016-05-29T10:56:46.762Z,31.73
2016-05-29T10:57:32.609Z,31.62
2016-05-29T10:58:32.657Z,31.48
2016-05-29T10:59:32.676Z,31.48
2016-05-29T11:00:32.710Z,31.5
2016-05-29T11:01:32.588Z,31.61
2016-05-29T11:03:32.812Z,31.54
2016-05-29T11:04:32.846Z,31.57
2016-05-29T11:05:47.520Z,31.43
2016-05-29T11:06:32.773Z,31.21
2016-05-29T11:07:32.932Z,31.28
2016-05-29T11:08:32.809Z,31.26
2016-05-29T11:09:33.000Z,30.86
2016-05-29T11:10:33.034Z,30.58
2016-05-29T11:11:47.255Z,30.54
2016-05-29T11:12:33.102Z,30.49
2016-05-29T11:13:33.152Z,30.38
2016-05-29T11:14:33.185Z,30.34
2016-05-29T11:15:33.203Z,30.31
2016-05-29T11:16:34.049Z,30.62
2016-05-29T11:17:33.255Z,30.69
2016-05-29T11:19:33.183Z,30.72
2016-05-29T11:20:33.701Z,30.69
2016-05-29T11:21:33.407Z,30.67
2016-05-29T11:22:33.426Z,30.79
2016-05-29T11:23:33.475Z,30.92
2016-05-29T11:24:33.352Z,30.6
2016-05-29T11:25:33.527Z,30.55
2016-05-29T11:26:33.561Z,30.62
2016-05-29T11:27:33.580Z,30.77
2016-05-29T11:28:33.457Z,30.86
2016-05-29T11:29:33.647Z,30.82
2016-05-29T11:30:33.682Z,30.82
2016-05-29T11:31:33.715Z,30.49
2016-05-29T11:32:33.749Z,30.31
2016-05-29T11:33:33.783Z,30.23
2016-05-29T11:34:33.833Z,30.15
2016-05-29T11:35:34.148Z,30.08
2016-05-29T11:36:33.870Z,30.15
2016-05-29T11:37:33.903Z,30.37
2016-05-29T11:38:33.937Z,30.43
2016-05-29T11:39:33.986Z,30.72
2016-05-29T11:40:34.006Z,30.83
2016-05-29T11:41:34.039Z,30.79
2016-05-29T11:42:33.901Z,30.94
2016-05-29T11:43:48.278Z,30.99
2016-05-29T11:45:34.159Z,31.41
2016-05-29T11:46:34.193Z,31.78
2016-05-29T11:47:34.227Z,32.03
2016-05-29T11:48:34.246Z,32.15
2016-05-29T11:50:34.422Z,32.43
2016-05-29T11:51:34.754Z,32.45
2016-05-29T11:52:50.740Z,32.37
2016-05-29T11:53:48.602Z,32.21
2016-05-29T11:54:34.449Z,32.14
2016-05-29T11:55:34.483Z,31.81
2016-05-29T11:56:34.517Z,31.91
2016-05-29T11:57:34.535Z,32.21
2016-05-29T11:58:34.569Z,32.07
2016-05-29T11:59:48.790Z,32.13
2016-05-29T12:00:34.324Z,32.06
2016-05-29T12:01:34.671Z,32.19
2016-05-29T12:02:34.704Z,32.33
2016-05-29T12:03:34.739Z,32.15
2016-05-29T12:04:34.617Z,32.06
2016-05-29T12:06:34.700Z,32.4
2016-05-29T12:07:34.703Z,32.37
2016-05-29T12:08:34.893Z,31.88
2016-05-29T12:09:34.942Z,31.5
2016-05-29T12:10:34.805Z,31.61
2016-05-29T12:11:34.995Z,31.47
2016-05-29T12:12:35.044Z,31.47
2016-05-29T12:13:34.906Z,31.53
2016-05-29T12:14:34.941Z,31.57
2016-05-29T12:15:49.303Z,31.41
2016-05-29T12:16:35.149Z,31.46
2016-05-29T12:17:35.183Z,31.47
2016-05-29T12:18:49.404Z,31.36
2016-05-29T12:19:35.266Z,31.32
2016-05-29T12:20:35.285Z,31.14
2016-05-29T12:21:35.756Z,30.84
2016-05-29T12:22:35.352Z,30.76
2016-05-29T12:23:35.215Z,30.77
2016-05-29T12:24:35.263Z,31.1
2016-05-29T12:25:49.627Z,31.21
2016-05-29T12:26:35.473Z,31.29
2016-05-29T12:27:35.506Z,31.17
2016-05-29T12:28:35.384Z,30.79
2016-05-29T12:29:35.574Z,30.6
2016-05-29T12:30:35.593Z,30.42
2016-05-29T12:31:49.815Z,30.31
2016-05-29T12:32:35.676Z,30.34
2016-05-29T12:33:35.694Z,30.67
2016-05-29T12:34:35.728Z,30.94
2016-05-29T12:35:36.419Z,31.04
2016-05-29T12:36:36.171Z,30.92
2016-05-29T12:37:35.674Z,31.06
2016-05-29T12:38:49.880Z,30.94
2016-05-29T12:39:50.070Z,30.65
2016-05-29T12:42:35.984Z,31.04
2016-05-29T12:43:36.018Z,31.02
2016-05-29T12:44:36.036Z,31.21
2016-05-29T12:45:36.070Z,31.09
2016-05-29T12:46:50.292Z,31.01
2016-05-29T12:47:36.138Z,30.91
2016-05-29T12:48:36.016Z,31.09
2016-05-29T12:49:36.050Z,31.14
2016-05-29T12:50:36.569Z,31.06
2016-05-29T12:51:36.774Z,30.82
2016-05-29T12:52:36.308Z,30.73
2016-05-29T12:53:36.326Z,30.98
2016-05-29T12:54:36.220Z,31.06
2016-05-29T12:55:36.254Z,30.92
2016-05-29T12:56:50.616Z,30.97
2016-05-29T12:57:36.306Z,30.7
2016-05-29T12:58:36.480Z,30.55
2016-05-29T12:59:36.358Z,30.54
2016-05-29T13:00:36.549Z,30.57
2016-05-29T13:01:36.582Z,30.61
2016-05-29T13:02:36.615Z,30.65
2016-05-29T13:03:36.650Z,30.43
2016-05-29T13:04:36.700Z,30.37
2016-05-29T13:05:37.265Z,30.31
2016-05-29T13:06:36.737Z,30.29
2016-05-29T13:07:36.770Z,30.08
2016-05-29T13:08:36.820Z,30.32
2016-05-29T13:09:36.839Z,30.42
2016-05-29T13:10:36.872Z,30.26
2016-05-29T13:11:36.922Z,30.07
2016-05-29T13:12:36.924Z,30.01
2016-05-29T13:13:36.959Z,29.8
2016-05-29T13:14:36.992Z,29.85
2016-05-29T13:15:37.011Z,29.58
2016-05-29T13:16:37.060Z,29.57
2016-05-29T13:17:37.078Z,29.53
2016-05-29T13:18:51.300Z,29.42
2016-05-29T13:19:37.146Z,29.48
2016-05-29T13:20:37.539Z,29.53
2016-05-29T13:21:37.761Z,29.57
2016-05-29T13:22:37.249Z,29.53
2016-05-29T13:23:37.110Z,29.45
2016-05-29T13:24:37.300Z,29.61
2016-05-29T13:25:37.335Z,29.83
2016-05-29T13:26:37.196Z,30
2016-05-29T13:27:37.387Z,30.2
2016-05-29T13:28:51.608Z,30.39
2016-05-29T13:29:37.454Z,30.45
2016-05-29T13:30:37.332Z,30.58
2016-05-29T13:31:37.538Z,30.61
2016-05-29T13:32:37.385Z,30.64
2016-05-29T13:33:37.434Z,30.61
2016-05-29T13:34:51.796Z,30.58
2016-05-29T13:35:37.643Z,30.39
2016-05-29T13:36:37.536Z,30.08
2016-05-29T13:37:37.554Z,29.9
2016-05-29T13:39:37.763Z,30.13
2016-05-29T13:40:37.797Z,30.31
2016-05-29T13:41:37.815Z,30.31
2016-05-29T13:42:37.848Z,30.35
2016-05-29T13:43:37.883Z,30.35
2016-05-29T13:44:37.776Z,30.72
2016-05-29T13:45:37.951Z,30.97
2016-05-29T13:46:37.828Z,31.07
2016-05-29T13:47:37.877Z,31.1